sensor_id;sensor_type;location;lat;lon;timestamp;temperature;humidity
4209;DHT22;36320;48.860;2.380;2022-10-13T06:18:08;19.20;69.00
4209;DHT22;36320;48.860;2.380;2022-10-13T06:20:34;19.00;69.70
4209;DHT22;36320;48.860;2.380;2022-10-13T06:23:00;18.80;70.90
4209;DHT22;36320;48.860;2.380;2022-10-13T06:25:27;18.50;70.40
4209;DHT22;36320;48.860;2.380;2022-10-13T06:27:55;18.60;71.00
4209;DHT22;36320;48.860;2.380;2022-10-13T06:30:24;18.60;71.10
4209;DHT22;36320;48.860;2.380;2022-10-13T06:32:50;18.50;71.30
4209;DHT22;36320;48.860;2.380;2022-10-13T06:35:16;18.50;71.40
4209;DHT22;36320;48.860;2.380;2022-10-13T06:37:42;18.50;71.40
4209;DHT22;36320;48.860;2.380;2022-10-13T06:40:11;18.50;71.40
4209;DHT22;36320;48.860;2.380;2022-10-13T06:42:38;18.50;71.50
4209;DHT22;36320;48.860;2.380;2022-10-13T06:45:04;18.40;71.40
4209;DHT22;36320;48.860;2.380;2022-10-13T06:47:30;18.30;71.30
4209;DHT22;36320;48.860;2.380;2022-10-13T06:49:56;18.40;71.20
4209;DHT22;36320;48.860;2.380;2022-10-13T06:52:23;18.20;71.20
4209;DHT22;36320;48.860;2.380;2022-10-13T06:54:49;18.20;71.40
4209;DHT22;36320;48.860;2.380;2022-10-13T06:57:15;18.10;71.50
4209;DHT22;36320;48.860;2.380;2022-10-13T06:59:41;18.20;71.40
4209;DHT22;36320;48.860;2.380;2022-10-13T07:02:09;18.20;71.40
4209;DHT22;36320;48.860;2.380;2022-10-13T07:04:35;18.10;71.40
4209;DHT22;36320;48.860;2.380;2022-10-13T07:07:01;18.10;72.50
4209;DHT22;36320;48.860;2.380;2022-10-13T07:09:27;18.10;71.70
4209;DHT22;36320;48.860;2.380;2022-10-13T07:11:54;18.10;71.50
4209;DHT22;36320;48.860;2.380;2022-10-13T07:14:20;18.10;71.20
4209;DHT22;36320;48.860;2.380;2022-10-13T07:16:49;18.20;71.50
4209;DHT22;36320;48.860;2.380;2022-10-13T07:19:14;18.10;71.50
4209;DHT22;36320;48.860;2.380;2022-10-13T07:21:40;18.20;71.80
4209;DHT22;36320;48.860;2.380;2022-10-13T07:24:08;18.20;71.90
4209;DHT22;36320;48.860;2.380;2022-10-13T07:26:35;18.20;72.10
4209;DHT22;36320;48.860;2.380;2022-10-13T07:29:01;18.00;72.50
4209;DHT22;36320;48.860;2.380;2022-10-13T07:31:27;17.90;72.80
4209;DHT22;36320;48.860;2.380;2022-10-13T07:33:53;17.80;73.10
4209;DHT22;36320;48.860;2.380;2022-10-13T07:36:21;17.90;73.20
4209;DHT22;36320;48.860;2.380;2022-10-13T07:38:47;17.90;73.30
4209;DHT22;36320;48.860;2.380;2022-10-13T07:41:14;17.80;73.10
4209;DHT22;36320;48.860;2.380;2022-10-13T07:43:40;17.90;73.20
4209;DHT22;36320;48.860;2.380;2022-10-13T07:46:07;18.10;73.20
4209;DHT22;36320;48.860;2.380;2022-10-13T07:48:33;18.20;72.80
4209;DHT22;36320;48.860;2.380;2022-10-13T07:51:03;18.30;72.50
4209;DHT22;36320;48.860;2.380;2022-10-13T07:53:29;18.20;72.40
4209;DHT22;36320;48.860;2.380;2022-10-13T07:55:59;18.30;72.10
4209;DHT22;36320;48.860;2.380;2022-10-13T07:58:25;18.30;72.30
4209;DHT22;36320;48.860;2.380;2022-10-13T08:00:55;18.30;72.10
4209;DHT22;36320;48.860;2.380;2022-10-13T08:03:21;18.40;72.10
4209;DHT22;36320;48.860;2.380;2022-10-13T08:05:47;18.30;72.00
4209;DHT22;36320;48.860;2.380;2022-10-13T08:08:12;18.20;72.00
4209;DHT22;36320;48.860;2.380;2022-10-13T08:10:38;18.20;72.10
4209;DHT22;36320;48.860;2.380;2022-10-13T08:13:04;18.10;72.30
4209;DHT22;36320;48.860;2.380;2022-10-13T08:15:30;18.10;72.10
4209;DHT22;36320;48.860;2.380;2022-10-13T08:17:55;18.30;72.10
4209;DHT22;36320;48.860;2.380;2022-10-13T08:20:21;18.20;72.10
4209;DHT22;36320;48.860;2.380;2022-10-13T08:22:48;18.10;71.80
4209;DHT22;36320;48.860;2.380;2022-10-13T08:25:14;18.00;72.50
4209;DHT22;36320;48.860;2.380;2022-10-13T08:27:39;18.20;72.50
4209;DHT22;36320;48.860;2.380;2022-10-13T08:30:06;18.30;71.90
4209;DHT22;36320;48.860;2.380;2022-10-13T08:32:32;18.30;71.80
4209;DHT22;36320;48.860;2.380;2022-10-13T08:34:58;18.40;71.70
4209;DHT22;36320;48.860;2.380;2022-10-13T08:37:23;18.40;71.70
4209;DHT22;36320;48.860;2.380;2022-10-13T08:39:49;18.40;71.50
4209;DHT22;36320;48.860;2.380;2022-10-13T08:42:17;18.50;71.20
4209;DHT22;36320;48.860;2.380;2022-10-13T08:44:49;18.50;71.20
4209;DHT22;36320;48.860;2.380;2022-10-13T08:50:09;18.60;71.10
4209;DHT22;36320;48.860;2.380;2022-10-13T08:57:52;18.80;70.40
4209;DHT22;36320;48.860;2.380;2022-10-13T09:00:19;18.70;70.30
4209;DHT22;36320;48.860;2.380;2022-10-13T09:02:45;18.70;70.20
4209;DHT22;36320;48.860;2.380;2022-10-13T09:05:24;18.70;70.30
4209;DHT22;36320;48.860;2.380;2022-10-13T09:07:54;18.70;70.50
4209;DHT22;36320;48.860;2.380;2022-10-13T09:10:23;18.90;70.10
4209;DHT22;36320;48.860;2.380;2022-10-13T09:12:48;19.00;70.10
4209;DHT22;36320;48.860;2.380;2022-10-13T09:15:16;18.90;69.80
4209;DHT22;36320;48.860;2.380;2022-10-13T09:17:42;19.20;69.80
4209;DHT22;36320;48.860;2.380;2022-10-13T09:20:23;19.30;69.60
4209;DHT22;36320;48.860;2.380;2022-10-13T09:25:43;19.20;69.20
4209;DHT22;36320;48.860;2.380;2022-10-13T09:28:30;19.10;69.40
4209;DHT22;36320;48.860;2.380;2022-10-13T09:31:23;19.40;69.10
4209;DHT22;36320;48.860;2.380;2022-10-13T09:34:01;19.40;69.00
4209;DHT22;36320;48.860;2.380;2022-10-13T09:36:30;19.40;68.80
4209;DHT22;36320;48.860;2.380;2022-10-13T09:39:15;19.40;68.60
4209;DHT22;36320;48.860;2.380;2022-10-13T09:41:42;19.30;68.60
4209;DHT22;36320;48.860;2.380;2022-10-13T09:44:37;19.40;68.80
4209;DHT22;36320;48.860;2.380;2022-10-13T09:47:03;19.40;69.50
4209;DHT22;36320;48.860;2.380;2022-10-13T09:49:33;19.30;69.80
4209;DHT22;36320;48.860;2.380;2022-10-13T09:54:43;19.40;71.00
4209;DHT22;36320;48.860;2.380;2022-10-13T09:57:21;19.30;71.40
4209;DHT22;36320;48.860;2.380;2022-10-13T10:00:10;19.30;72.00
4209;DHT22;36320;48.860;2.380;2022-10-13T10:05:22;19.60;72.20
4209;DHT22;36320;48.860;2.380;2022-10-13T10:07:52;19.70;72.40
4209;DHT22;36320;48.860;2.380;2022-10-13T10:12:50;19.70;72.80
4209;DHT22;36320;48.860;2.380;2022-10-13T10:15:22;19.80;72.30
4209;DHT22;36320;48.860;2.380;2022-10-13T10:17:57;19.70;72.40
4209;DHT22;36320;48.860;2.380;2022-10-13T10:23:54;19.60;72.20
4209;DHT22;36320;48.860;2.380;2022-10-13T10:26:28;19.40;72.50
4209;DHT22;36320;48.860;2.380;2022-10-13T10:29:25;19.40;73.10
4209;DHT22;36320;48.860;2.380;2022-10-13T10:32:00;19.50;73.10
4209;DHT22;36320;48.860;2.380;2022-10-13T10:42:55;19.30;72.90
4209;DHT22;36320;48.860;2.380;2022-10-13T10:45:34;19.40;73.20
4209;DHT22;36320;48.860;2.380;2022-10-13T10:48:25;19.40;72.90
4209;DHT22;36320;48.860;2.380;2022-10-13T10:50:53;19.60;72.90
4209;DHT22;36320;48.860;2.380;2022-10-13T10:56:33;19.80;72.80
4209;DHT22;36320;48.860;2.380;2022-10-13T11:04:43;19.50;72.90
4209;DHT22;36320;48.860;2.380;2022-10-13T11:12:45;19.20;73.40
4209;DHT22;36320;48.860;2.380;2022-10-13T11:15:15;19.10;73.50
4209;DHT22;36320;48.860;2.380;2022-10-13T11:17:46;19.20;73.70
4209;DHT22;36320;48.860;2.380;2022-10-13T11:30:52;19.20;73.70
4209;DHT22;36320;48.860;2.380;2022-10-13T11:33:51;19.20;74.10
4209;DHT22;36320;48.860;2.380;2022-10-13T11:36:42;19.60;73.80
4209;DHT22;36320;48.860;2.380;2022-10-13T11:50:45;19.70;73.40
4209;DHT22;36320;48.860;2.380;2022-10-13T11:53:17;19.80;73.90
4209;DHT22;36320;48.860;2.380;2022-10-13T11:58:26;19.40;74.90
4209;DHT22;36320;48.860;2.380;2022-10-13T12:01:00;19.40;76.00
4209;DHT22;36320;48.860;2.380;2022-10-13T12:03:38;19.40;76.50
4209;DHT22;36320;48.860;2.380;2022-10-13T12:06:06;19.40;76.90
4209;DHT22;36320;48.860;2.380;2022-10-13T12:08:44;19.40;77.00
4209;DHT22;36320;48.860;2.380;2022-10-13T12:11:29;19.20;77.80
4209;DHT22;36320;48.860;2.380;2022-10-13T12:13:57;19.50;78.80
4209;DHT22;36320;48.860;2.380;2022-10-13T12:16:24;19.80;78.60
4209;DHT22;36320;48.860;2.380;2022-10-13T12:18:51;19.70;78.30
4209;DHT22;36320;48.860;2.380;2022-10-13T12:21:18;19.50;78.50
4209;DHT22;36320;48.860;2.380;2022-10-13T12:23:47;19.40;78.70
4209;DHT22;36320;48.860;2.380;2022-10-13T12:26:18;19.50;79.10
4209;DHT22;36320;48.860;2.380;2022-10-13T12:28:51;19.40;79.00
4209;DHT22;36320;48.860;2.380;2022-10-13T12:31:23;19.50;79.20
4209;DHT22;36320;48.860;2.380;2022-10-13T12:34:00;19.40;79.60
4209;DHT22;36320;48.860;2.380;2022-10-13T12:36:30;19.20;79.70
4209;DHT22;36320;48.860;2.380;2022-10-13T12:38:59;19.00;80.50
4209;DHT22;36320;48.860;2.380;2022-10-13T12:41:32;19.00;81.20
4209;DHT22;36320;48.860;2.380;2022-10-13T12:43:58;18.80;81.70
4209;DHT22;36320;48.860;2.380;2022-10-13T12:46:48;18.80;82.60
4209;DHT22;36320;48.860;2.380;2022-10-13T12:49:23;18.90;83.10
4209;DHT22;36320;48.860;2.380;2022-10-13T12:52:05;19.20;83.60
4209;DHT22;36320;48.860;2.380;2022-10-13T12:54:49;19.40;84.00
4209;DHT22;36320;48.860;2.380;2022-10-13T12:57:21;19.40;84.10
4209;DHT22;36320;48.860;2.380;2022-10-13T12:59:59;19.20;84.10
4209;DHT22;36320;48.860;2.380;2022-10-13T13:02:31;19.20;84.30
4209;DHT22;36320;48.860;2.380;2022-10-13T13:04:57;19.40;84.80
4209;DHT22;36320;48.860;2.380;2022-10-13T13:12:32;19.10;84.90
4209;DHT22;36320;48.860;2.380;2022-10-13T13:15:37;19.10;85.60
4209;DHT22;36320;48.860;2.380;2022-10-13T13:18:42;19.20;85.80
4209;DHT22;36320;48.860;2.380;2022-10-13T13:21:14;19.30;86.30
4209;DHT22;36320;48.860;2.380;2022-10-13T13:23:41;19.50;87.10
4209;DHT22;36320;48.860;2.380;2022-10-13T13:26:18;19.50;86.80
4209;DHT22;36320;48.860;2.380;2022-10-13T13:31:12;19.30;86.70
4209;DHT22;36320;48.860;2.380;2022-10-13T13:33:38;19.20;86.60
4209;DHT22;36320;48.860;2.380;2022-10-13T13:36:16;19.20;86.90
4209;DHT22;36320;48.860;2.380;2022-10-13T13:38:42;19.20;87.00
4209;DHT22;36320;48.860;2.380;2022-10-13T13:41:11;19.00;87.30
4209;DHT22;36320;48.860;2.380;2022-10-13T13:43:37;19.10;87.70
4209;DHT22;36320;48.860;2.380;2022-10-13T13:46:05;19.10;87.40
4209;DHT22;36320;48.860;2.380;2022-10-13T13:48:31;18.90;87.20
4209;DHT22;36320;48.860;2.380;2022-10-13T13:50:57;18.90;87.50
4209;DHT22;36320;48.860;2.380;2022-10-13T13:53:22;19.00;87.30
4209;DHT22;36320;48.860;2.380;2022-10-13T13:55:48;18.90;87.10
4209;DHT22;36320;48.860;2.380;2022-10-13T13:58:16;19.00;87.20
4209;DHT22;36320;48.860;2.380;2022-10-13T14:00:41;19.00;87.00
4209;DHT22;36320;48.860;2.380;2022-10-13T14:03:07;19.10;86.90
4209;DHT22;36320;48.860;2.380;2022-10-13T14:05:33;19.10;86.40
4209;DHT22;36320;48.860;2.380;2022-10-13T14:08:02;19.10;86.50
4209;DHT22;36320;48.860;2.380;2022-10-13T14:10:28;19.10;86.30
4209;DHT22;36320;48.860;2.380;2022-10-13T14:12:54;19.00;86.40
4209;DHT22;36320;48.860;2.380;2022-10-13T14:15:20;19.10;86.40
4209;DHT22;36320;48.860;2.380;2022-10-13T14:17:45;19.00;86.60
4209;DHT22;36320;48.860;2.380;2022-10-13T14:20:11;19.00;86.70
4209;DHT22;36320;48.860;2.380;2022-10-13T14:22:37;19.00;86.50
4209;DHT22;36320;48.860;2.380;2022-10-13T14:25:05;18.90;86.50
4209;DHT22;36320;48.860;2.380;2022-10-13T14:27:33;19.00;86.70
4209;DHT22;36320;48.860;2.380;2022-10-13T14:30:00;19.00;86.70
4209;DHT22;36320;48.860;2.380;2022-10-13T14:32:26;18.90;86.70
4209;DHT22;36320;48.860;2.380;2022-10-13T14:34:52;18.80;87.10
4209;DHT22;36320;48.860;2.380;2022-10-13T14:37:17;18.80;87.60
4209;DHT22;36320;48.860;2.380;2022-10-13T14:39:43;18.70;87.80
4209;DHT22;36320;48.860;2.380;2022-10-13T14:42:09;18.50;88.00
4209;DHT22;36320;48.860;2.380;2022-10-13T14:44:35;18.30;88.80
4209;DHT22;36320;48.860;2.380;2022-10-13T14:47:01;18.40;89.20
4209;DHT22;36320;48.860;2.380;2022-10-13T14:49:27;18.40;89.10
4209;DHT22;36320;48.860;2.380;2022-10-13T14:51:53;18.40;89.10
4209;DHT22;36320;48.860;2.380;2022-10-13T14:54:18;18.40;89.10
4209;DHT22;36320;48.860;2.380;2022-10-13T14:56:44;18.50;89.10
4209;DHT22;36320;48.860;2.380;2022-10-13T14:59:10;18.60;88.80
4209;DHT22;36320;48.860;2.380;2022-10-13T15:01:37;18.50;88.80
4209;DHT22;36320;48.860;2.380;2022-10-13T15:04:06;18.30;88.80
4209;DHT22;36320;48.860;2.380;2022-10-13T15:06:32;18.40;89.00
4209;DHT22;36320;48.860;2.380;2022-10-13T15:08:58;18.50;88.90
4209;DHT22;36320;48.860;2.380;2022-10-13T15:11:26;18.60;88.80
4209;DHT22;36320;48.860;2.380;2022-10-13T15:13:52;18.50;88.60
4209;DHT22;36320;48.860;2.380;2022-10-13T15:16:20;18.40;88.70
4209;DHT22;36320;48.860;2.380;2022-10-13T15:18:47;18.50;88.60
4209;DHT22;36320;48.860;2.380;2022-10-13T15:21:13;18.40;88.70
4209;DHT22;36320;48.860;2.380;2022-10-13T15:23:39;18.40;89.00
4209;DHT22;36320;48.860;2.380;2022-10-13T15:26:12;18.40;88.60
4209;DHT22;36320;48.860;2.380;2022-10-13T15:28:44;18.50;88.90
4209;DHT22;36320;48.860;2.380;2022-10-13T15:31:11;18.50;88.80
4209;DHT22;36320;48.860;2.380;2022-10-13T15:33:50;18.40;88.80
4209;DHT22;36320;48.860;2.380;2022-10-13T15:36:16;18.40;88.90
4209;DHT22;36320;48.860;2.380;2022-10-13T15:38:43;18.50;89.20
4209;DHT22;36320;48.860;2.380;2022-10-13T15:41:14;18.50;89.00
4209;DHT22;36320;48.860;2.380;2022-10-13T15:43:40;18.40;88.90
4209;DHT22;36320;48.860;2.380;2022-10-13T15:46:09;17.70;88.40
4209;DHT22;36320;48.860;2.380;2022-10-13T15:48:35;18.40;89.30
4209;DHT22;36320;48.860;2.380;2022-10-13T15:51:08;18.50;89.30
4209;DHT22;36320;48.860;2.380;2022-10-13T15:53:33;18.60;89.10
4209;DHT22;36320;48.860;2.380;2022-10-13T15:56:00;18.60;88.80
4209;DHT22;36320;48.860;2.380;2022-10-13T15:58:27;18.50;88.40
4209;DHT22;36320;48.860;2.380;2022-10-13T16:00:52;18.40;88.70
4209;DHT22;36320;48.860;2.380;2022-10-13T16:03:18;18.30;89.20
4209;DHT22;36320;48.860;2.380;2022-10-13T16:05:48;18.10;89.60
4209;DHT22;36320;48.860;2.380;2022-10-13T16:08:14;18.10;89.70
4209;DHT22;36320;48.860;2.380;2022-10-13T16:10:41;18.20;90.00
4209;DHT22;36320;48.860;2.380;2022-10-13T16:13:08;18.30;90.40
4209;DHT22;36320;48.860;2.380;2022-10-13T16:15:34;18.10;90.30
4209;DHT22;36320;48.860;2.380;2022-10-13T16:18:01;18.20;90.50
4209;DHT22;36320;48.860;2.380;2022-10-13T16:20:28;18.10;90.50
4209;DHT22;36320;48.860;2.380;2022-10-13T16:23:00;18.10;90.70
4209;DHT22;36320;48.860;2.380;2022-10-13T16:25:27;18.00;90.80
4209;DHT22;36320;48.860;2.380;2022-10-13T16:27:53;17.90;90.90
4209;DHT22;36320;48.860;2.380;2022-10-13T16:30:19;17.90;91.10
4209;DHT22;36320;48.860;2.380;2022-10-13T16:32:45;17.90;91.10
4209;DHT22;36320;48.860;2.380;2022-10-13T16:35:10;17.90;91.20
4209;DHT22;36320;48.860;2.380;2022-10-13T16:37:36;17.90;91.10
4209;DHT22;36320;48.860;2.380;2022-10-13T16:40:02;18.00;91.30
4209;DHT22;36320;48.860;2.380;2022-10-13T16:42:28;18.10;91.30
4209;DHT22;36320;48.860;2.380;2022-10-13T16:44:54;18.20;91.20
4209;DHT22;36320;48.860;2.380;2022-10-13T16:47:20;18.10;91.30
4209;DHT22;36320;48.860;2.380;2022-10-13T16:49:45;18.10;91.10
4209;DHT22;36320;48.860;2.380;2022-10-13T16:52:11;18.20;91.20
4209;DHT22;36320;48.860;2.380;2022-10-13T16:54:37;18.10;91.10
4209;DHT22;36320;48.860;2.380;2022-10-13T16:57:04;18.10;91.10
4209;DHT22;36320;48.860;2.380;2022-10-13T16:59:30;18.00;91.10
4209;DHT22;36320;48.860;2.380;2022-10-13T17:01:56;18.00;91.10
4209;DHT22;36320;48.860;2.380;2022-10-13T17:04:23;18.10;91.10
4209;DHT22;36320;48.860;2.380;2022-10-13T17:06:53;17.40;90.70
4209;DHT22;36320;48.860;2.380;2022-10-13T17:09:19;18.30;90.90
4209;DHT22;36320;48.860;2.380;2022-10-13T17:11:48;18.30;90.90
4209;DHT22;36320;48.860;2.380;2022-10-13T17:14:31;18.30;90.90
4209;DHT22;36320;48.860;2.380;2022-10-13T17:17:12;18.20;90.80
4209;DHT22;36320;48.860;2.380;2022-10-13T17:19:45;18.00;90.90
4209;DHT22;36320;48.860;2.380;2022-10-13T17:22:18;18.20;91.00
4209;DHT22;36320;48.860;2.380;2022-10-13T17:24:55;18.20;90.80
4209;DHT22;36320;48.860;2.380;2022-10-13T17:27:25;18.10;90.80
4209;DHT22;36320;48.860;2.380;2022-10-13T17:30:05;18.20;90.70
4209;DHT22;36320;48.860;2.380;2022-10-13T17:32:41;18.20;90.70
4209;DHT22;36320;48.860;2.380;2022-10-13T17:35:13;18.10;90.70
4209;DHT22;36320;48.860;2.380;2022-10-13T17:38:02;17.90;90.90
4209;DHT22;36320;48.860;2.380;2022-10-13T17:41:01;18.10;90.80
4209;DHT22;36320;48.860;2.380;2022-10-13T17:43:43;17.90;90.80
4209;DHT22;36320;48.860;2.380;2022-10-13T17:46:29;18.10;90.90
4209;DHT22;36320;48.860;2.380;2022-10-13T17:48:56;18.10;90.80
4209;DHT22;36320;48.860;2.380;2022-10-13T17:51:23;18.30;90.80
4209;DHT22;36320;48.860;2.380;2022-10-13T17:53:50;18.30;90.70
4209;DHT22;36320;48.860;2.380;2022-10-13T17:56:18;18.30;90.70
4209;DHT22;36320;48.860;2.380;2022-10-13T17:59:10;18.40;90.60
4209;DHT22;36320;48.860;2.380;2022-10-13T18:01:43;18.30;90.60
4209;DHT22;36320;48.860;2.380;2022-10-13T18:04:12;18.30;90.50
4209;DHT22;36320;48.860;2.380;2022-10-13T18:06:43;18.20;90.60
4209;DHT22;36320;48.860;2.380;2022-10-13T18:09:15;18.20;90.60
4209;DHT22;36320;48.860;2.380;2022-10-13T18:11:44;18.30;90.60
4209;DHT22;36320;48.860;2.380;2022-10-13T18:14:10;18.30;90.50
4209;DHT22;36320;48.860;2.380;2022-10-13T18:16:36;18.30;90.60
4209;DHT22;36320;48.860;2.380;2022-10-13T18:19:02;18.40;90.50
4209;DHT22;36320;48.860;2.380;2022-10-13T18:21:28;18.40;90.50
4209;DHT22;36320;48.860;2.380;2022-10-13T18:23:56;18.50;90.30
4209;DHT22;36320;48.860;2.380;2022-10-13T18:26:23;18.40;90.30
4209;DHT22;36320;48.860;2.380;2022-10-13T18:28:50;18.40;90.30
4209;DHT22;36320;48.860;2.380;2022-10-13T18:31:21;18.40;90.40
4209;DHT22;36320;48.860;2.380;2022-10-13T18:33:47;18.40;90.40
4209;DHT22;36320;48.860;2.380;2022-10-13T18:36:17;18.40;90.30
4209;DHT22;36320;48.860;2.380;2022-10-13T18:38:45;18.50;90.30
4209;DHT22;36320;48.860;2.380;2022-10-13T18:41:11;18.50;90.30
4209;DHT22;36320;48.860;2.380;2022-10-13T18:43:38;18.40;90.30
